Time;durP1;ratioP1;P1;durP2;ratioP2;P2;SDS_P1;SDS_P2;PMS_P1;PMS_P2;Temp;Humidity;BMP_temperature;BMP_pressure;BME280_temperature;BME280_humidity;BME280_pressure;Samples;Min_cycle;Max_cycle;Signal;HPM_P1;HPM_P2
2022/09/21 00:00:43;;;;;;;4.30;2.75;;;;;;;9.81;73.06;101259.25;5136979;27;20058;-57
2022/09/21 00:03:11;;;;;;;6.22;3.83;;;;;;;9.72;73.91;101268.22;5133455;27;20062;-57
2022/09/21 00:05:38;;;;;;;4.57;2.88;;;;;;;9.69;72.93;101270.75;5133451;27;20412;-57
2022/09/21 00:08:08;;;;;;;5.32;3.00;;;;;;;9.68;73.75;101264.34;5133484;27;20055;-56
2022/09/21 00:10:35;;;;;;;6.75;3.00;;;;;;;9.67;73.65;101270.19;5133424;27;20066;-57
2022/09/21 00:13:07;;;;;;;6.82;3.10;;;;;;;9.64;72.91;101276.31;5133326;27;20051;-57
2022/09/21 00:15:39;;;;;;;6.18;3.22;;;;;;;9.59;72.98;101268.84;5133019;27;20146;-57
2022/09/21 00:18:10;;;;;;;4.60;2.60;;;;;;;9.58;72.69;101269.97;5133488;27;20047;-57
2022/09/21 00:20:40;;;;;;;5.10;3.10;;;;;;;9.54;73.66;101266.09;5133195;28;20051;-58
2022/09/21 00:23:07;;;;;;;2.88;2.40;;;;;;;9.53;73.16;101270.84;5133433;28;20519;-57
2022/09/21 00:25:38;;;;;;;3.33;2.28;;;;;;;9.53;74.05;101279.19;5133323;28;20055;-57
2022/09/21 00:28:05;;;;;;;4.95;2.78;;;;;;;9.52;73.62;101273.91;5134414;27;20047;-57
2022/09/21 00:30:33;;;;;;;3.95;2.53;;;;;;;9.48;72.77;101276.41;5153915;27;20055;-58
2022/09/21 00:33:00;;;;;;;5.72;2.85;;;;;;;9.42;72.96;101273.97;5154341;27;20497;-57
2022/09/21 00:35:29;;;;;;;4.65;2.60;;;;;;;9.36;73.82;101281.50;5154080;27;20470;-57
2022/09/21 00:37:59;;;;;;;5.22;2.38;;;;;;;9.35;73.32;101275.13;5153830;27;20055;-57
2022/09/21 00:40:27;;;;;;;4.18;2.58;;;;;;;9.31;73.10;101278.75;5153994;27;20050;-57
2022/09/21 00:42:54;;;;;;;5.32;2.70;;;;;;;9.27;74.71;101283.22;5149223;27;20061;-56
2022/09/21 00:45:21;;;;;;;6.10;3.45;;;;;;;9.24;74.53;101281.84;5150231;27;20491;-57
2022/09/21 00:47:52;;;;;;;3.95;3.03;;;;;;;9.22;73.74;101289.66;5153590;27;20050;-56
2022/09/21 00:50:22;;;;;;;7.70;3.10;;;;;;;9.18;73.60;101285.78;5153580;27;20062;-57
2022/09/21 00:52:54;;;;;;;4.80;2.72;;;;;;;9.15;73.39;101289.09;5140908;27;20055;-57
2022/09/21 00:55:26;;;;;;;5.45;2.80;;;;;;;9.13;74.23;101288.56;5132777;28;20062;-57
2022/09/21 00:57:57;;;;;;;5.50;2.90;;;;;;;9.06;73.40;101288.88;5133259;27;20058;-57
2022/09/21 01:00:24;;;;;;;4.40;2.60;;;;;;;9.07;73.20;101281.34;5148386;27;20058;-56
2022/09/21 01:02:52;;;;;;;4.80;2.70;;;;;;;9.08;73.26;101288.59;5155532;27;20529;-57
2022/09/21 01:05:19;;;;;;;4.30;2.72;;;;;;;9.04;73.52;101290.28;5157325;27;20499;-56
2022/09/21 01:07:48;;;;;;;4.32;2.75;;;;;;;9.00;73.07;101290.00;5157621;27;20050;-57
2022/09/21 01:10:19;;;;;;;3.72;2.58;;;;;;;8.99;73.69;101291.13;5157373;27;20065;-57
2022/09/21 01:12:55;;;;;;;6.47;2.50;;;;;;;8.92;74.08;101287.81;5157403;27;20482;-56
2022/09/21 01:15:33;;;;;;;6.13;3.42;;;;;;;8.90;74.66;101290.88;5137507;27;20057;-57
2022/09/21 01:18:07;;;;;;;5.18;3.10;;;;;;;8.88;74.32;101287.56;5136461;27;20487;-57
2022/09/21 01:21:08;;;;;;;5.05;2.70;;;;;;;8.89;73.38;101293.94;5136518;27;20484;-57
2022/09/21 01:23:56;;;;;;;3.28;2.50;;;;;;;8.83;73.47;101295.91;5136499;27;20066;-57
2022/09/21 01:26:41;;;;;;;4.75;2.38;;;;;;;8.82;74.59;101298.94;5136379;27;20062;-56
2022/09/21 01:29:16;;;;;;;3.78;2.55;;;;;;;8.76;73.31;101300.06;5135562;27;20055;-57
2022/09/21 01:31:50;;;;;;;3.28;2.25;;;;;;;8.74;74.37;101301.19;5136053;27;20411;-57
2022/09/21 01:34:25;;;;;;;3.97;2.60;;;;;;;8.72;73.45;101302.59;5136564;27;20055;-57
2022/09/21 01:36:57;;;;;;;3.95;2.38;;;;;;;8.71;72.90;101303.69;5136055;27;20059;-57
2022/09/21 01:39:26;;;;;;;3.90;2.30;;;;;;;8.70;74.53;101310.38;5136208;27;20062;-56
2022/09/21 01:41:56;;;;;;;3.13;2.17;;;;;;;8.65;74.56;101311.22;5135455;27;20078;-56
2022/09/21 01:44:32;;;;;;;3.78;2.30;;;;;;;8.67;73.42;101313.72;5152791;27;20509;-57
2022/09/21 01:47:02;;;;;;;3.13;2.15;;;;;;;8.66;73.08;101312.06;5156857;27;20051;-57
2022/09/21 01:49:36;;;;;;;3.20;1.95;;;;;;;8.63;73.50;101307.06;5156882;27;20051;-57
2022/09/21 01:52:11;;;;;;;5.13;2.60;;;;;;;8.58;73.01;101309.84;5156500;27;20062;-57
2022/09/21 01:54:41;;;;;;;2.47;2.03;;;;;;;8.54;74.43;101309.56;5147051;27;20058;-56
2022/09/21 01:57:15;;;;;;;2.95;2.13;;;;;;;8.56;73.39;101312.91;5139304;27;20050;-57
2022/09/21 01:59:50;;;;;;;3.95;2.47;;;;;;;8.50;74.33;101309.31;5155674;27;20058;-57
2022/09/21 02:02:22;;;;;;;3.78;2.42;;;;;;;8.49;73.38;101312.38;5156552;27;20474;-57
2022/09/21 02:04:50;;;;;;;5.75;2.28;;;;;;;8.44;73.48;101315.13;5152737;27;20062;-57
2022/09/21 02:07:18;;;;;;;4.63;2.63;;;;;;;8.40;73.22;101308.44;5156027;27;20054;-57
2022/09/21 02:09:47;;;;;;;4.63;2.08;;;;;;;8.35;73.21;101306.50;5156347;27;20085;-57
2022/09/21 02:12:14;;;;;;;3.65;2.45;;;;;;;8.32;72.83;101301.53;5143863;27;20051;-57
2022/09/21 02:14:42;;;;;;;4.03;2.05;;;;;;;8.33;72.87;101303.19;5135172;27;20419;-57
2022/09/21 02:17:26;;;;;;;6.28;2.47;;;;;;;8.32;73.33;101312.63;5135063;27;20502;-57
2022/09/21 02:20:03;;;;;;;6.47;2.50;;;;;;;8.30;73.74;101314.84;5135102;27;20416;-57
2022/09/21 02:22:36;;;;;;;4.15;2.25;;;;;;;8.30;73.75;101314.84;5135878;27;20054;-57
2022/09/21 02:25:09;;;;;;;4.30;2.45;;;;;;;8.26;73.61;101308.19;5135407;27;20055;-57
2022/09/21 02:27:45;;;;;;;3.63;2.30;;;;;;;8.23;73.79;101314.28;5150592;27;20047;-57
2022/09/21 02:30:14;;;;;;;3.92;2.80;;;;;;;8.22;74.24;101319.00;5155507;27;20089;-57
2022/09/21 02:32:54;;;;;;;5.53;2.90;;;;;;;8.18;74.09;101308.75;5153221;27;20483;-57
2022/09/21 02:35:31;;;;;;;3.25;2.53;;;;;;;8.17;73.84;101312.63;5155566;27;20054;-57
2022/09/21 02:38:06;;;;;;;5.53;2.75;;;;;;;8.17;73.13;101313.47;5155682;27;20051;-57
2022/09/21 02:40:39;;;;;;;5.43;2.50;;;;;;;8.10;74.20;101304.56;5150503;27;20050;-60
2022/09/21 02:43:11;;;;;;;5.07;2.80;;;;;;;8.09;73.81;101306.53;5134841;27;20411;-61
2022/09/21 02:45:42;;;;;;;5.30;2.50;;;;;;;8.07;74.27;101308.75;5153987;27;20422;-62
2022/09/21 02:48:15;;;;;;;6.00;2.60;;;;;;;8.07;73.49;101310.69;5155844;27;20466;-61
2022/09/21 02:50:46;;;;;;;4.00;2.65;;;;;;;8.05;73.56;101305.41;5155421;27;20066;-61
2022/09/21 02:53:18;;;;;;;4.40;2.17;;;;;;;8.01;73.38;101304.31;5155508;27;20057;-61
2022/09/21 02:55:49;;;;;;;5.50;2.25;;;;;;;7.99;72.70;101306.53;5153969;27;20046;-61
2022/09/21 02:58:19;;;;;;;4.05;2.30;;;;;;;7.95;74.22;101308.19;5154879;27;20388;-61
2022/09/21 03:00:47;;;;;;;3.95;2.33;;;;;;;7.91;73.83;101307.06;5155075;27;20058;-61
2022/09/21 03:03:17;;;;;;;4.45;2.05;;;;;;;7.92;73.50;101305.97;5155029;27;20055;-61
2022/09/21 03:05:47;;;;;;;3.58;2.10;;;;;;;7.88;74.72;101300.13;5134746;27;20047;-61
2022/09/21 03:08:14;;;;;;;;;;;;;;;7.88;74.44;101300.13;5134943;27;20051;-60
2022/09/21 03:10:42;;;;;;;4.03;2.30;;;;;;;7.82;74.04;101305.97;5134398;27;19919;-62
2022/09/21 03:13:09;;;;;;;4.38;2.53;;;;;;;7.80;72.45;101300.69;5134445;27;20399;-61
2022/09/21 03:15:37;;;;;;;4.07;2.38;;;;;;;7.80;72.89;101305.41;5134007;27;20067;-61
2022/09/21 03:18:08;;;;;;;3.78;2.40;;;;;;;7.74;72.61;101299.00;5134143;27;20047;-61
2022/09/21 03:20:37;;;;;;;4.53;3.03;;;;;;;7.71;73.93;101300.38;5148252;27;20066;-61
2022/09/21 03:23:05;;;;;;;4.22;2.28;;;;;;;7.70;72.73;101304.25;5154519;27;20513;-62
2022/09/21 03:25:33;;;;;;;3.25;2.17;;;;;;;7.69;74.40;101301.78;5152690;27;20057;-61
2022/09/21 03:28:03;;;;;;;4.65;2.50;;;;;;;7.69;73.14;101305.38;5154704;27;20356;-61
2022/09/21 03:30:31;;;;;;;5.90;3.00;;;;;;;7.64;73.05;101307.31;5154480;27;20063;-61
2022/09/21 03:32:58;;;;;;;6.00;3.45;;;;;;;7.64;73.09;101308.16;5154779;27;20051;-61
2022/09/21 03:35:26;;;;;;;3.47;2.90;;;;;;;7.66;73.11;101303.13;5139054;27;20491;-62
2022/09/21 03:37:55;;;;;;;7.90;2.85;;;;;;;7.63;73.42;101312.03;5133535;27;20054;-61
2022/09/21 03:40:22;;;;;;;4.00;2.25;;;;;;;7.61;73.64;101308.69;5133796;27;20054;-61
2022/09/21 03:42:49;;;;;;;3.95;2.17;;;;;;;7.63;73.18;101314.78;5133478;27;20059;-61
2022/09/21 03:45:17;;;;;;;4.45;2.40;;;;;;;7.61;73.74;101308.69;5149780;27;20095;-60
2022/09/21 03:47:44;;;;;;;3.95;2.40;;;;;;;7.64;74.11;101312.84;5152836;27;20073;-59
2022/09/21 03:50:11;;;;;;;4.32;2.28;;;;;;;7.60;74.43;101311.72;5133597;27;20062;-61
2022/09/21 03:52:39;;;;;;;3.63;2.25;;;;;;;7.64;75.16;101307.31;5133722;27;20047;-61
2022/09/21 03:55:09;;;;;;;3.50;2.08;;;;;;;7.62;74.50;101310.38;5133313;27;20055;-61
2022/09/21 03:57:37;;;;;;;4.25;2.00;;;;;;;7.63;73.83;101306.47;5133495;27;20066;-61
2022/09/21 04:00:06;;;;;;;4.45;2.20;;;;;;;7.64;73.10;101313.69;5133350;27;20403;-61
2022/09/21 04:02:33;;;;;;;3.35;2.20;;;;;;;7.63;73.22;101312.03;5145721;27;20486;-61
2022/09/21 04:05:01;;;;;;;5.90;2.28;;;;;;;7.65;73.96;101312.56;5153994;27;20065;-61
2022/09/21 04:07:31;;;;;;;2.67;2.00;;;;;;;7.66;72.68;101308.69;5154295;27;20486;-61
2022/09/21 04:09:58;;;;;;;5.50;2.50;;;;;;;7.61;72.81;101313.41;5154154;27;20055;-61
2022/09/21 04:12:27;;;;;;;4.72;2.33;;;;;;;7.59;73.19;101307.31;5153990;27;20108;-61
2022/09/21 04:14:54;;;;;;;6.07;2.60;;;;;;;7.58;72.95;101314.78;5154096;27;20420;-61
2022/09/21 04:17:21;;;;;;;4.50;2.38;;;;;;;7.57;72.36;101315.88;5146708;27;20055;-61
2022/09/21 04:19:48;;;;;;;3.88;2.50;;;;;;;7.55;72.68;101311.72;5133229;27;20488;-61
2022/09/21 04:22:17;;;;;;;5.20;2.47;;;;;;;7.57;72.58;101306.75;5133013;28;20062;-60
2022/09/21 04:24:45;;;;;;;5.18;2.65;;;;;;;7.56;73.36;101308.69;5133655;28;20513;-60
2022/09/21 04:27:12;;;;;;;5.55;2.47;;;;;;;7.59;72.76;101310.91;5133358;28;20058;-59
2022/09/21 04:29:41;;;;;;;6.20;3.08;;;;;;;7.54;73.67;101313.69;5132637;28;20047;-61
2022/09/21 04:32:08;;;;;;;4.88;2.75;;;;;;;7.56;74.69;101321.69;5136956;27;20462;-60
2022/09/21 04:34:36;;;;;;;9.80;3.47;;;;;;;7.57;74.94;101318.66;5152822;27;20057;-60
2022/09/21 04:37:03;;;;;;;6.57;3.47;;;;;;;7.60;74.82;101318.13;5154904;27;20085;-60
2022/09/21 04:39:30;;;;;;;20.35;4.50;;;;;;;7.57;73.66;101312.28;5157170;27;20604;-60
2022/09/21 04:41:57;;;;;;;7.38;3.72;;;;;;;7.66;74.39;101325.31;5158145;27;20051;-60
2022/09/21 04:44:25;;;;;;;11.07;4.53;;;;;;;7.65;75.80;101318.13;5157978;27;20538;-60
2022/09/21 04:46:53;;;;;;;8.13;3.97;;;;;;;7.65;75.20;101323.66;5145342;27;20067;-60
2022/09/21 04:49:21;;;;;;;12.07;3.67;;;;;;;7.73;75.93;101320.38;5136825;27;20423;-60
2022/09/21 04:51:48;;;;;;;24.23;4.47;;;;;;;7.69;75.59;101321.19;5137094;27;20055;-60
2022/09/21 04:54:15;;;;;;;8.38;3.78;;;;;;;7.70;76.09;101323.66;5136665;27;20078;-60
2022/09/21 04:56:43;;;;;;;10.57;3.70;;;;;;;7.77;75.46;101323.44;5136963;27;20411;-60
2022/09/21 04:59:10;;;;;;;12.45;4.00;;;;;;;7.79;75.39;101323.13;5136614;27;20504;-60
2022/09/21 05:01:37;;;;;;;21.48;4.65;;;;;;;7.79;74.34;101321.22;5146122;27;20055;-60
2022/09/21 05:04:06;;;;;;;22.75;4.35;;;;;;;7.79;73.78;101329.53;5156191;27;20050;-60
2022/09/21 05:06:34;;;;;;;4.63;2.70;;;;;;;7.78;74.36;101336.19;5157435;27;20054;-60
2022/09/21 05:11:46;;;;;;;5.22;3.60;;;;;;;7.77;74.82;101330.91;5159936;27;20057;-60
2022/09/21 05:14:14;;;;;;;6.28;3.33;;;;;;;7.77;73.28;101334.53;5141701;27;20055;-60
2022/09/21 05:16:41;;;;;;;8.55;3.40;;;;;;;7.82;73.37;101339.25;5141194;27;20093;-60
2022/09/21 05:19:09;;;;;;;26.35;4.47;;;;;;;7.82;72.94;101342.00;5157019;27;20047;-61
2022/09/21 05:21:37;;;;;;;42.40;5.65;;;;;;;7.78;73.16;101341.72;5144015;27;20058;-60
2022/09/21 05:24:04;;;;;;;5.40;3.17;;;;;;;7.71;73.83;101347.53;5151699;27;20066;-60
2022/09/21 05:26:32;;;;;;;7.38;3.72;;;;;;;7.75;73.37;101349.75;5143914;27;20462;-60
2022/09/21 05:28:59;;;;;;;7.70;3.50;;;;;;;7.80;74.04;101356.16;5154049;27;20047;-60
2022/09/21 05:31:41;;;;;;;7.75;3.50;;;;;;;7.87;73.71;101353.97;5152448;27;20443;-60
2022/09/21 05:34:23;;;;;;;7.70;3.70;;;;;;;7.90;74.44;101355.34;5156125;27;20050;-60
2022/09/21 05:36:59;;;;;;;7.57;3.58;;;;;;;7.93;74.56;101360.31;5155898;27;20477;-60
2022/09/21 05:39:26;;;;;;;18.63;3.90;;;;;;;7.95;74.64;101360.06;5152060;27;20046;-61
2022/09/21 05:41:54;;;;;;;8.35;3.50;;;;;;;7.97;74.60;101366.16;5135416;27;20059;-61
2022/09/21 05:44:22;;;;;;;9.73;3.35;;;;;;;8.03;74.62;101360.34;5137796;27;20550;-60
2022/09/21 05:46:57;;;;;;;13.50;4.05;;;;;;;8.11;73.29;101368.13;5136270;27;20418;-60
2022/09/21 05:49:36;;;;;;;7.57;4.03;;;;;;;8.14;74.85;101367.56;5135294;27;20051;-61
2022/09/21 05:52:13;;;;;;;8.70;3.47;;;;;;;8.16;73.49;101372.03;5135724;27;20078;-60
2022/09/21 05:54:56;;;;;;;14.88;4.05;;;;;;;8.22;73.44;101365.38;5138000;27;20066;-60
2022/09/21 05:57:33;;;;;;;20.35;4.78;;;;;;;8.29;74.76;101368.69;5135891;27;20059;-60
2022/09/21 06:00:11;;;;;;;25.48;4.88;;;;;;;8.39;74.15;101376.19;5135918;27;20138;-61
2022/09/21 06:02:57;;;;;;;12.13;4.78;;;;;;;8.46;73.47;101372.06;5152664;27;20410;-60
2022/09/21 06:05:26;;;;;;;6.43;4.45;;;;;;;8.59;73.69;101376.22;5135366;27;20058;-61
2022/09/21 06:07:53;;;;;;;10.13;4.75;;;;;;;8.60;73.28;101377.88;5139799;27;20058;-60
2022/09/21 06:10:21;;;;;;;23.60;3.88;;;;;;;8.74;73.03;101375.38;5143758;27;20058;-61
2022/09/21 06:12:48;;;;;;;13.15;3.78;;;;;;;8.82;71.56;101380.38;5134569;27;20385;-61
2022/09/21 06:15:16;;;;;;;11.95;3.97;;;;;;;8.93;70.96;101379.22;5135838;27;20062;-61
2022/09/21 06:17:43;;;;;;;6.45;3.70;;;;;;;8.96;71.15;101388.09;5147660;27;20066;-61
2022/09/21 06:20:10;;;;;;;4.88;3.10;;;;;;;9.11;71.65;101385.28;5154600;27;20053;-64
2022/09/21 06:22:39;;;;;;;4.68;3.30;;;;;;;9.31;71.30;101382.44;5135888;27;20058;-64
2022/09/21 06:25:07;;;;;;;7.57;3.30;;;;;;;9.44;70.00;101381.00;5141776;27;20464;-64
2022/09/21 06:27:34;;;;;;;22.08;4.35;;;;;;;9.60;70.08;101380.97;5150737;27;20073;-65
2022/09/21 06:30:02;;;;;;;7.20;4.05;;;;;;;9.73;68.95;101383.94;5149972;27;20609;-65
2022/09/21 06:32:29;;;;;;;28.63;5.43;;;;;;;9.84;68.78;101381.09;5141588;27;20487;-62
2022/09/21 06:34:56;;;;;;;6.40;4.72;;;;;;;9.96;68.48;101379.63;5147506;27;20054;-65
2022/09/21 06:37:24;;;;;;;6.25;3.60;;;;;;;10.07;69.26;101383.16;5153783;27;20465;-65
2022/09/21 06:39:52;;;;;;;37.22;5.50;;;;;;;10.16;67.48;101383.38;5152147;27;20055;-65
2022/09/21 06:42:19;;;;;;;11.63;4.10;;;;;;;10.24;67.64;101379.16;5154748;27;20051;-65
2022/09/21 06:44:47;;;;;;;70.47;6.97;;;;;;;10.28;67.56;101385.81;5153493;27;20051;-64
2022/09/21 06:47:14;;;;;;;7.05;4.15;;;;;;;10.32;67.29;101381.34;5140992;27;20066;-64
2022/09/21 06:49:41;;;;;;;7.00;4.03;;;;;;;10.60;66.38;101384.47;5136740;27;20051;-64
2022/09/21 06:52:08;;;;;;;10.32;4.40;;;;;;;10.76;66.09;101386.00;5145290;27;20065;-65
2022/09/21 06:54:36;;;;;;;5.63;3.80;;;;;;;10.80;65.61;101381.50;5139642;27;20051;-65
2022/09/21 06:57:04;;;;;;;7.40;4.03;;;;;;;10.96;65.64;101380.22;5134634;27;20059;-65
2022/09/21 06:59:31;;;;;;;14.02;4.43;;;;;;;11.04;64.92;101380.69;5135519;27;20062;-65
2022/09/21 07:01:59;;;;;;;8.25;4.00;;;;;;;11.21;64.56;101381.03;5146564;27;20046;-65
2022/09/21 07:04:27;;;;;;;7.65;4.18;;;;;;;11.36;63.93;101375.31;5151558;27;20077;-65
2022/09/21 07:06:54;;;;;;;5.38;3.30;;;;;;;11.48;64.08;101376.84;5137090;27;20059;-65
2022/09/21 07:09:21;;;;;;;14.07;4.05;;;;;;;11.63;63.64;101376.63;5145554;27;20055;-65
2022/09/21 07:11:49;;;;;;;6.25;2.80;;;;;;;11.79;63.43;101386.44;5142156;27;20051;-65
2022/09/21 07:14:18;;;;;;;7.63;4.68;;;;;;;11.80;63.04;101384.50;5145933;27;20047;-65
2022/09/21 07:16:45;;;;;;;12.25;4.55;;;;;;;12.11;62.76;101387.69;5138724;27;20051;-65
2022/09/21 07:19:12;;;;;;;6.43;4.18;;;;;;;12.26;61.51;101374.63;5137476;27;20067;-65
2022/09/21 07:21:39;;;;;;;7.03;4.55;;;;;;;12.44;60.46;101373.78;5150961;27;20509;-65
2022/09/21 07:24:07;;;;;;;23.45;4.22;;;;;;;12.50;61.24;101383.75;5139483;27;20055;-65
2022/09/21 07:26:36;;;;;;;23.23;4.00;;;;;;;12.64;60.29;101382.94;5154216;27;20400;-65
2022/09/21 07:29:03;;;;;;;12.73;3.40;;;;;;;12.80;59.68;101375.97;5145901;27;20073;-65
2022/09/21 07:31:31;;;;;;;16.70;3.38;;;;;;;12.87;60.06;101381.13;5132302;27;20058;-65
2022/09/21 07:33:59;;;;;;;19.90;4.55;;;;;;;13.03;59.35;101379.72;5135653;27;20051;-65
2022/09/21 07:36:26;;;;;;;4.90;3.28;;;;;;;13.27;58.98;101385.16;5155089;27;20062;-65
2022/09/21 07:38:54;;;;;;;3.58;2.97;;;;;;;13.55;57.58;101387.97;5141406;27;20062;-65
2022/09/21 07:41:21;;;;;;;14.35;3.75;;;;;;;13.54;58.27;101389.09;5154779;27;20055;-65
2022/09/21 07:43:49;;;;;;;6.05;3.08;;;;;;;13.89;56.47;101379.09;5146837;27;20057;-65
2022/09/21 07:46:16;;;;;;;5.05;2.97;;;;;;;14.13;55.84;101387.25;5139712;27;20046;-65
2022/09/21 07:48:45;;;;;;;4.15;2.47;;;;;;;14.37;55.77;101381.31;5145800;27;20065;-65
2022/09/21 07:51:14;;;;;;;2.67;2.40;;;;;;;14.56;54.80;101380.34;5150062;27;20061;-65
2022/09/21 07:53:44;;;;;;;7.78;6.80;;;;;;;15.04;53.69;101387.22;5140959;27;20051;-68
2022/09/21 07:56:13;;;;;;;3.92;2.83;;;;;;;15.61;52.53;101390.91;5148393;27;20051;-65
2022/09/21 08:01:26;;;;;;;5.05;3.78;;;;;;;17.83;48.25;101369.06;5152007;27;20497;-65
2022/09/21 08:03:57;;;;;;;7.15;5.63;;;;;;;19.31;45.29;101366.78;5154030;27;20058;-65
2022/09/21 08:06:26;;;;;;;8.82;6.78;;;;;;;20.54;42.40;101360.91;5149071;27;20059;-66
2022/09/21 08:08:53;;;;;;;6.53;4.75;;;;;;;22.21;39.58;101365.50;5151028;27;20494;-66
2022/09/21 08:11:22;;;;;;;4.82;4.38;;;;;;;23.47;36.32;101353.72;5152011;27;20078;-65
2022/09/21 08:13:53;;;;;;;4.78;3.60;;;;;;;24.70;34.84;101360.75;5148163;27;20051;-65
2022/09/21 08:16:20;;;;;;;2.55;2.00;;;;;;;26.07;32.45;101353.34;5138698;27;20493;-65
2022/09/21 08:18:47;;;;;;;2.47;2.28;;;;;;;27.03;30.97;101357.78;5145281;27;20062;-65
2022/09/21 08:21:16;;;;;;;2.42;2.03;;;;;;;27.68;30.03;101353.72;5146432;27;20066;-65
2022/09/21 08:23:43;;;;;;;2.63;2.22;;;;;;;28.15;29.56;101350.75;5144498;27;20059;-63
2022/09/21 08:26:17;;;;;;;2.50;2.30;;;;;;;28.76;28.07;101349.66;5148766;27;20140;-63
2022/09/21 08:28:47;;;;;;;2.60;2.20;;;;;;;29.73;26.54;101346.88;5133081;27;20058;-63
2022/09/21 08:31:17;;;;;;;2.28;1.73;;;;;;;30.32;26.45;101340.03;5146197;27;20055;-65
2022/09/21 08:33:44;;;;;;;3.33;2.10;;;;;;;30.97;24.84;101354.34;5132848;27;20059;-65
2022/09/21 08:36:11;;;;;;;3.72;2.55;;;;;;;31.48;25.05;101335.03;5142110;27;20073;-64
2022/09/21 08:38:41;;;;;;;2.35;2.00;;;;;;;31.98;23.51;101338.22;5144634;27;20498;-65
2022/09/21 08:41:15;;;;;;;3.60;2.33;;;;;;;32.23;23.96;101343.50;5133810;27;20058;-65
2022/09/21 08:43:44;;;;;;;2.40;2.00;;;;;;;31.42;24.85;101348.28;5136423;27;20054;-65
2022/09/21 08:46:15;;;;;;;3.63;2.55;;;;;;;32.33;24.16;101349.03;5144975;27;20054;-65
2022/09/21 08:48:47;;;;;;;2.30;2.00;;;;;;;32.85;23.18;101349.56;5132507;27;20055;-64
2022/09/21 08:51:21;;;;;;;2.42;2.15;;;;;;;33.10;23.42;101338.25;5137501;27;20065;-64
2022/09/21 08:53:52;;;;;;;2.92;2.47;;;;;;;33.56;22.70;101341.22;5153899;27;20089;-65
2022/09/21 08:56:21;;;;;;;3.28;2.35;;;;;;;33.71;22.29;101353.22;5151945;27;20510;-64
2022/09/21 08:58:49;;;;;;;2.33;2.05;;;;;;;33.93;21.73;101354.22;5135787;27;20062;-64
2022/09/21 09:01:33;;;;;;;2.60;2.40;;;;;;;34.37;21.03;101351.72;5150047;27;20069;-64
2022/09/21 09:04:22;;;;;;;3.25;2.63;;;;;;;34.48;21.58;101348.53;5129569;27;20055;-64
2022/09/21 09:06:56;;;;;;;3.80;2.90;;;;;;;35.04;21.86;101344.28;5142962;27;20051;-64
2022/09/21 09:10:01;;;;;;;2.92;2.63;;;;;;;35.24;21.01;101340.34;5140139;27;20102;-67
2022/09/21 09:12:46;;;;;;;3.97;2.47;;;;;;;35.58;21.10;101348.28;5137311;27;20042;-63
2022/09/21 09:15:45;;;;;;;4.40;2.65;;;;;;;35.60;20.64;101347.84;5152225;27;20054;-65
2022/09/21 09:18:23;;;;;;;3.13;2.63;;;;;;;36.27;20.45;101349.56;5125271;27;20051;-64
2022/09/21 09:21:00;;;;;;;2.93;2.57;;;;;;;36.60;20.32;101347.00;5139357;27;20530;-65
2022/09/21 09:23:32;;;;;;;3.17;2.65;;;;;;;36.69;20.46;101343.38;5145747;27;20059;-64
2022/09/21 09:26:07;;;;;;;2.92;2.22;;;;;;;37.04;19.83;101352.69;5140751;27;20431;-64
2022/09/21 09:28:41;;;;;;;3.35;2.63;;;;;;;37.35;19.76;101340.25;5147699;27;20059;-64
2022/09/21 09:31:16;;;;;;;3.17;2.50;;;;;;;37.59;19.40;101337.56;5154177;27;20051;-64
2022/09/21 09:33:52;;;;;;;3.45;2.15;;;;;;;37.84;18.38;101339.34;5156382;27;20051;-64
2022/09/21 09:36:20;;;;;;;3.15;2.00;;;;;;;37.95;18.82;101345.47;5138780;27;20055;-64
2022/09/21 09:38:55;;;;;;;3.00;1.88;;;;;;;38.61;18.36;101334.56;5149477;27;20058;-64
2022/09/21 09:41:59;;;;;;;4.38;2.15;;;;;;;39.09;17.72;101331.81;5151090;27;20051;-64
2022/09/21 09:44:45;;;;;;;3.67;1.77;;;;;;;39.22;17.11;101337.38;5150149;27;20051;-64
2022/09/21 09:47:25;;;;;;;5.10;2.17;;;;;;;39.78;16.53;101332.78;5141973;27;20046;-64
2022/09/21 09:50:04;;;;;;;3.05;2.08;;;;;;;39.61;16.71;101325.78;5155036;27;20058;-64
2022/09/21 09:52:32;;;;;;;4.22;1.50;;;;;;;38.91;16.90;101326.84;5153698;27;20479;-64
2022/09/21 09:54:59;;;;;;;2.95;1.60;;;;;;;39.44;16.67;101328.34;5147890;27;20055;-64
2022/09/21 09:57:32;;;;;;;3.35;1.90;;;;;;;38.08;17.26;101333.69;5136679;27;20055;-64
2022/09/21 10:00:02;;;;;;;3.72;1.70;;;;;;;37.33;17.51;101328.28;5148045;27;20079;-64
2022/09/21 10:02:30;;;;;;;2.95;1.63;;;;;;;36.05;19.20;101332.13;5153664;27;20057;-63
2022/09/21 10:05:02;;;;;;;2.95;1.30;;;;;;;35.49;19.14;101330.81;5155924;27;20054;-64
2022/09/21 10:07:34;;;;;;;3.03;1.08;;;;;;;34.09;20.59;101335.22;5146116;27;20050;-64
2022/09/21 10:10:02;;;;;;;2.70;1.10;;;;;;;32.53;21.47;101336.69;5142975;27;20491;-64
2022/09/21 10:12:31;;;;;;;3.08;1.73;;;;;;;31.83;22.41;101337.69;5134913;27;20055;-63
2022/09/21 10:15:00;;;;;;;3.25;1.50;;;;;;;31.68;22.42;101337.94;5145613;27;20065;-64
2022/09/21 10:17:27;;;;;;;2.40;1.17;;;;;;;31.70;22.99;101328.88;5151652;27;20062;-64
2022/09/21 10:20:01;;;;;;;2.50;1.30;;;;;;;33.10;20.91;101328.78;5147104;27;20490;-64
2022/09/21 10:22:30;;;;;;;4.80;1.80;;;;;;;33.37;20.48;101322.72;5141095;27;20062;-63
2022/09/21 10:25:00;;;;;;;2.88;1.25;;;;;;;34.38;19.72;101326.53;5139696;27;20065;-63
2022/09/21 10:27:33;;;;;;;2.95;1.40;;;;;;;33.63;19.58;101322.91;5151430;27;20047;-64
2022/09/21 10:30:01;;;;;;;3.85;1.60;;;;;;;34.96;19.39;101325.53;5140335;27;20055;-63
2022/09/21 10:32:29;;;;;;;3.22;1.63;;;;;;;35.12;18.56;101321.72;5145327;27;20051;-63
2022/09/21 10:35:19;;;;;;;5.18;1.50;;;;;;;36.12;17.55;101331.84;5137817;27;20407;-63
2022/09/21 10:37:52;;;;;;;2.53;1.10;;;;;;;36.89;17.03;101316.84;5149621;27;20055;-63
2022/09/21 10:40:25;;;;;;;3.15;1.08;;;;;;;35.60;17.64;101327.53;5155064;27;20514;-63
2022/09/21 10:42:57;;;;;;;5.75;1.55;;;;;;;33.89;19.13;101318.88;5149016;27;20415;-64
2022/09/21 10:45:26;;;;;;;2.38;1.08;;;;;;;32.72;20.46;101332.97;5149014;27;20054;-63
2022/09/21 10:47:57;;;;;;;2.08;0.95;;;;;;;31.89;20.68;101325.19;5155401;27;20050;-63
2022/09/21 10:50:28;;;;;;;2.83;0.90;;;;;;;31.11;22.12;101324.53;5154204;27;20050;-63
2022/09/21 10:53:00;;;;;;;3.17;1.00;;;;;;;30.63;23.10;101325.69;5144041;27;20435;-63
2022/09/21 10:55:30;;;;;;;2.70;1.10;;;;;;;30.11;24.19;101321.00;5153742;27;20047;-63
2022/09/21 10:58:00;;;;;;;2.30;1.42;;;;;;;31.27;22.22;101318.94;5144397;27;20793;-63
2022/09/21 11:00:34;;;;;;;3.05;1.30;;;;;;;32.38;20.54;101315.97;5152953;27;20058;-63
2022/09/21 11:03:24;;;;;;;3.55;1.30;;;;;;;33.55;19.17;101311.50;5155271;27;20437;-63
2022/09/21 11:05:53;;;;;;;2.08;0.95;;;;;;;34.41;18.95;101311.13;5149022;27;20054;-63
2022/09/21 11:08:27;;;;;;;3.75;1.60;;;;;;;35.51;18.53;101310.84;5134598;27;20058;-63
2022/09/21 11:11:06;;;;;;;3.72;1.20;;;;;;;36.40;16.73;101309.66;5138327;27;20055;-63
2022/09/21 11:13:39;;;;;;;3.45;1.10;;;;;;;36.52;16.60;101302.16;5142250;27;20043;-63
2022/09/21 11:16:14;;;;;;;2.75;1.10;;;;;;;36.52;16.21;101299.25;5137650;27;20061;-63
2022/09/21 11:18:49;;;;;;;2.00;0.93;;;;;;;35.92;16.56;101304.00;5154805;27;20051;-63
2022/09/21 11:21:27;;;;;;;2.88;1.17;;;;;;;35.49;17.03;101301.81;5151935;27;20050;-63
2022/09/21 11:24:02;;;;;;;3.25;1.10;;;;;;;35.69;17.65;101313.16;5135912;27;20054;-62
2022/09/21 11:26:36;;;;;;;1.98;0.90;;;;;;;35.54;18.15;101304.13;5133216;27;20051;-63
2022/09/21 11:29:09;;;;;;;3.05;0.90;;;;;;;34.20;17.74;101312.59;5145413;27;20124;-63
2022/09/21 11:32:00;;;;;;;2.08;0.90;;;;;;;32.66;19.26;101300.13;5148633;27;20055;-63
2022/09/21 11:34:56;;;;;;;2.25;1.08;;;;;;;31.43;18.91;101306.72;5151373;27;20058;-63
2022/09/21 11:37:41;;;;;;;2.78;0.80;;;;;;;30.49;20.51;101303.69;5143957;27;20475;-63
2022/09/21 11:40:25;;;;;;;2.75;1.10;;;;;;;29.97;21.23;101301.88;5146547;27;20051;-63
2022/09/21 11:43:08;;;;;;;2.08;1.20;;;;;;;31.02;19.82;101293.44;5149105;27;20058;-63
2022/09/21 11:45:56;;;;;;;1.25;0.50;;;;;;;30.21;19.79;101294.19;5134449;27;20055;-63
2022/09/21 11:48:35;;;;;;;1.73;0.65;;;;;;;29.86;19.89;101296.28;5140921;27;20054;-63
2022/09/21 11:51:16;;;;;;;1.75;0.70;;;;;;;29.51;21.33;101295.38;5137112;27;20080;-64
2022/09/21 11:54:14;;;;;;;1.52;0.65;;;;;;;28.72;21.44;101298.88;5147211;27;20047;-62